Sunmi — C6WS3 — position and weather

sailwx.info

Track history (hours):
 
Tides and Currents Weather Stations Pressure Air Temp Water Temp Dewpoint Dewpoint Depression Visibility Wind Speed Wind Dir Waves Ship Positions

Sunmi

Last reported at 2018-Feb-21 17:26 UTC. Time now 2018-Feb-23 06:33 UTC.
Position N 43°27' W 003°48'.

Length 90 m; draft 5.2 m.

Type: Ship. MMSI: 309937000.

Date/timePositionNaut miles runAvg speedWind from/ knotsBaromVisibWave heightAir tempDewpointWater temp
2018-Feb-21 17:26N 43°27' W 003°48'6 5.2
2018-Feb-21 16:16N 43°33' W 003°46'2 8.6
2018-Feb-21 16:00N 43°35' W 003°47'26410.7
2018-Feb-20 15:24N 47°48' W 005°33'410.2
2018-Feb-20 14:58N 47°52' W 005°35'510.2
2018-Feb-20 14:30N 47°57' W 005°37'610.5
2018-Feb-20 13:58N 48°02' W 005°40'510.8
2018-Feb-20 13:30N 48°07' W 005°42'611.2
2018-Feb-20 13:00N 48°13' W 005°45'811.6
2018-Feb-20 12:18N 48°20' W 005°48'96 9.4
2018-Feb-20 02:06N 49°30' W 004°10'3711.0
2018-Feb-19 22:47N 49°50' W 003°22'3 9.8
2018-Feb-19 22:30N 49°51' W 003°18'5 9.1
2018-Feb-19 22:00N 49°53' W 003°11'5 9.1
2018-Feb-19 21:30N 49°55' W 003°05'4 8.9
2018-Feb-19 21:00N 49°57' W 002°59'5 9.0
2018-Feb-19 20:30N 49°59' W 002°53'5 9.3
2018-Feb-19 20:00N 50°01' W 002°46'2510.6
2018-Feb-19 17:39N 50°08' W 002°09'211.4
2018-Feb-19 17:30N 50°08' W 002°07'611.9
2018-Feb-19 17:00N 50°10' W 001°58'612.5
2018-Feb-19 16:30N 50°12' W 001°48'612.6
2018-Feb-19 16:01N 50°14' W 001°39'612.5
2018-Feb-19 15:29N 50°15' W 001°29'612.5
2018-Feb-19 15:00N 50°17' W 001°20'4110.2
2018-Feb-19 11:00N 50°28' W 000°18'5 8.4
2018-Feb-19 10:27N 50°29' W 000°11'4 8.9
2018-Feb-19 10:00N 50°31' W 000°05'4 9.2
2018-Feb-19 09:30N 50°32' E 000°02'5 9.7
2018-Feb-19 09:00N 50°33' E 000°09'510.4
2018-Feb-19 08:30N 50°35' E 000°17'510.7
2018-Feb-19 08:00N 50°36' E 000°25'611.4
2018-Feb-19 07:31N 50°38' E 000°33'612.1
2018-Feb-19 07:01N 50°42' E 000°41'612.1
2018-Feb-19 06:30N 50°45' E 000°49'611.8
2018-Feb-19 05:58N 50°49' E 000°57'811.3
2018-Feb-19 05:15N 50°54' E 001°07'410.8
2018-Feb-19 04:54N 50°56' E 001°12'410.3
2018-Feb-19 04:30N 50°59' E 001°17'5 9.6
2018-Feb-19 04:00N 51°02' E 001°23'4 8.9
2018-Feb-19 03:30N 51°05' E 001°28'4 8.1
2018-Feb-19 03:01N 51°07' E 001°33'4 7.6
2018-Feb-19 02:31N 51°10' E 001°38'4 8.0
2018-Feb-19 02:01N 51°12' E 001°42'4 8.5
2018-Feb-19 01:31N 51°16' E 001°47'5 9.7
2018-Feb-19 01:01N 51°20' E 001°51'510.3
2018-Feb-19 00:31N 51°24' E 001°55'510.4
2018-Feb-19 00:00N 51°28' E 002°00'611.0
2018-Feb-18 23:30N 51°33' E 002°06'611.6
2018-Feb-18 22:59N 51°37' E 002°12'611.6
2018-Feb-18 22:29N 51°42' E 002°18'2811.3
2018-Feb-18 20:01N 52°03' E 002°47'110.9
2018-Feb-18 19:55N 52°04' E 002°48'410.7
2018-Feb-18 19:30N 52°07' E 002°52'1910.2
2018-Feb-18 17:37N 52°23' E 003°12'1 9.7
2018-Feb-18 17:30N 52°24' E 003°13'5 9.5
2018-Feb-18 16:57N 52°28' E 003°18'5 9.3
2018-Feb-18 16:24N 52°32' E 003°23'13 9.3
2018-Feb-18 14:59N 52°42' E 003°37'1910.6
2018-Feb-18 13:13N 52°56' E 003°57'2111.3
2018-Feb-18 11:23N 53°10' E 004°23'411.2
2018-Feb-18 11:01N 53°14' E 004°25'16710.6
2018-Feb-17 19:12N 55°40' E 006°44'210.7
2018-Feb-17 18:59N 55°42' E 006°46'510.7
2018-Feb-17 18:29N 55°47' E 006°51'510.7
2018-Feb-17 18:00N 55°51' E 006°56'510.7
2018-Feb-17 17:30N 55°55' E 007°01'15510.1
2018-Feb-17 02:11N 57°46' E 010°20'310.3
2018-Feb-17 01:51N 57°47' E 010°27'310.0
2018-Feb-17 01:30N 57°48' E 010°33'5 9.3
2018-Feb-17 01:01N 57°48' E 010°41'5 9.7
2018-Feb-17 00:30N 57°46' E 010°50'510.0
2018-Feb-17 00:00N 57°43' E 010°57'510.4
2018-Feb-16 23:30N 57°40' E 011°04'611.5
2018-Feb-16 23:00N 57°36' E 011°12'612.3
2018-Feb-16 22:31N 57°31' E 011°20'611.9
2018-Feb-16 22:00N 57°27' E 011°28'611.5
2018-Feb-16 21:30N 57°22' E 011°31'511.0
2018-Feb-16 21:01N 57°17' E 011°35'510.6
2018-Feb-16 20:31N 57°12' E 011°38'510.7
2018-Feb-16 20:00N 57°06' E 011°41'510.7
2018-Feb-16 19:30N 57°01' E 011°44'610.5
2018-Feb-16 18:54N 56°55' E 011°48'61 9.9
2018-Feb-16 12:48N 55°55' E 011°50'3 9.2
2018-Feb-16 12:30N 55°57' E 011°54'3 5.6
2018-Feb-16 12:00N 55°57' E 011°59'1 0.0
2018-Feb-14 17:12N 55°58' E 012°01'1 2.6
2018-Feb-14 17:00N 55°57' E 012°00'2 3.8
2018-Feb-14 16:30N 55°57' E 011°57'3 5.8
2018-Feb-14 15:58N 55°55' E 011°52'1 3.0
2018-Feb-14 15:30N 55°56' E 011°50'41 5.1
2018-Feb-14 07:29N 55°31' E 010°52'911.8
2018-Feb-14 06:42N 55°24' E 011°01'411.4
2018-Feb-14 06:23N 55°20' E 011°03'410.8
2018-Feb-14 06:00N 55°16' E 011°05'510.8
2018-Feb-14 05:30N 55°11' E 011°05'611.8
2018-Feb-14 05:00N 55°05' E 011°03'612.3
2018-Feb-14 04:30N 54°59' E 011°01'611.1
2018-Feb-14 04:00N 54°55' E 010°55'611.1
2018-Feb-14 03:30N 54°50' E 010°52'611.7
2018-Feb-14 03:00N 54°44' E 010°53'510.7
2018-Feb-14 02:30N 54°40' E 010°60'611.7
2018-Feb-14 02:00N 54°37' E 011°08'611.6
2018-Feb-14 01:30N 54°34' E 011°17'611.4
2018-Feb-14 01:00N 54°30' E 011°24'611.3
2018-Feb-14 00:30N 54°24' E 011°26'612.0
2018-Feb-14 00:01N 54°19' E 011°23'612.0
2018-Feb-13 23:30N 54°13' E 011°19'611.9
2018-Feb-13 23:00N 54°08' E 011°14'  
Track history (hours):
 
Tides and Currents Weather Stations Pressure Air Temp Water Temp Dewpoint Dewpoint Depression Visibility Wind Speed Wind Dir Waves Ship Positions

Sunmi

Last reported at 2018-Feb-21 17:26 UTC. Time now 2018-Feb-23 06:33 UTC.
Position N 43°27' W 003°48'.

Length 90 m; draft 5.2 m.

Type: Ship. MMSI: 309937000.

Date/timePositionNaut miles runAvg speedWind from/ knotsBaromVisibWave heightAir tempDewpointWater temp
2018-Feb-21 17:26N 43°27' W 003°48'6 5.2
2018-Feb-21 16:16N 43°33' W 003°46'2 8.6
2018-Feb-21 16:00N 43°35' W 003°47'26410.7
2018-Feb-20 15:24N 47°48' W 005°33'410.2
2018-Feb-20 14:58N 47°52' W 005°35'510.2
2018-Feb-20 14:30N 47°57' W 005°37'610.5
2018-Feb-20 13:58N 48°02' W 005°40'510.8
2018-Feb-20 13:30N 48°07' W 005°42'611.2
2018-Feb-20 13:00N 48°13' W 005°45'811.6
2018-Feb-20 12:18N 48°20' W 005°48'96 9.4
2018-Feb-20 02:06N 49°30' W 004°10'3711.0
2018-Feb-19 22:47N 49°50' W 003°22'3 9.8
2018-Feb-19 22:30N 49°51' W 003°18'5 9.1
2018-Feb-19 22:00N 49°53' W 003°11'5 9.1
2018-Feb-19 21:30N 49°55' W 003°05'4 8.9
2018-Feb-19 21:00N 49°57' W 002°59'5 9.0
2018-Feb-19 20:30N 49°59' W 002°53'5 9.3
2018-Feb-19 20:00N 50°01' W 002°46'2510.6
2018-Feb-19 17:39N 50°08' W 002°09'211.4
2018-Feb-19 17:30N 50°08' W 002°07'611.9
2018-Feb-19 17:00N 50°10' W 001°58'612.5
2018-Feb-19 16:30N 50°12' W 001°48'612.6
2018-Feb-19 16:01N 50°14' W 001°39'612.5
2018-Feb-19 15:29N 50°15' W 001°29'612.5
2018-Feb-19 15:00N 50°17' W 001°20'4110.2
2018-Feb-19 11:00N 50°28' W 000°18'5 8.4
2018-Feb-19 10:27N 50°29' W 000°11'4 8.9
2018-Feb-19 10:00N 50°31' W 000°05'4 9.2
2018-Feb-19 09:30N 50°32' E 000°02'5 9.7
2018-Feb-19 09:00N 50°33' E 000°09'510.4
2018-Feb-19 08:30N 50°35' E 000°17'510.7
2018-Feb-19 08:00N 50°36' E 000°25'611.4
2018-Feb-19 07:31N 50°38' E 000°33'612.1
2018-Feb-19 07:01N 50°42' E 000°41'612.1
2018-Feb-19 06:30N 50°45' E 000°49'611.8
2018-Feb-19 05:58N 50°49' E 000°57'811.3
2018-Feb-19 05:15N 50°54' E 001°07'410.8
2018-Feb-19 04:54N 50°56' E 001°12'410.3
2018-Feb-19 04:30N 50°59' E 001°17'5 9.6
2018-Feb-19 04:00N 51°02' E 001°23'4 8.9
2018-Feb-19 03:30N 51°05' E 001°28'4 8.1
2018-Feb-19 03:01N 51°07' E 001°33'4 7.6
2018-Feb-19 02:31N 51°10' E 001°38'4 8.0
2018-Feb-19 02:01N 51°12' E 001°42'4 8.5
2018-Feb-19 01:31N 51°16' E 001°47'5 9.7
2018-Feb-19 01:01N 51°20' E 001°51'510.3
2018-Feb-19 00:31N 51°24' E 001°55'510.4
2018-Feb-19 00:00N 51°28' E 002°00'611.0
2018-Feb-18 23:30N 51°33' E 002°06'611.6
2018-Feb-18 22:59N 51°37' E 002°12'611.6
2018-Feb-18 22:29N 51°42' E 002°18'2811.3
2018-Feb-18 20:01N 52°03' E 002°47'110.9
2018-Feb-18 19:55N 52°04' E 002°48'410.7
2018-Feb-18 19:30N 52°07' E 002°52'1910.2
2018-Feb-18 17:37N 52°23' E 003°12'1 9.7
2018-Feb-18 17:30N 52°24' E 003°13'5 9.5
2018-Feb-18 16:57N 52°28' E 003°18'5 9.3
2018-Feb-18 16:24N 52°32' E 003°23'13 9.3
2018-Feb-18 14:59N 52°42' E 003°37'1910.6
2018-Feb-18 13:13N 52°56' E 003°57'2111.3
2018-Feb-18 11:23N 53°10' E 004°23'411.2
2018-Feb-18 11:01N 53°14' E 004°25'16710.6
2018-Feb-17 19:12N 55°40' E 006°44'210.7
2018-Feb-17 18:59N 55°42' E 006°46'510.7
2018-Feb-17 18:29N 55°47' E 006°51'510.7
2018-Feb-17 18:00N 55°51' E 006°56'510.7
2018-Feb-17 17:30N 55°55' E 007°01'15510.1
2018-Feb-17 02:11N 57°46' E 010°20'310.3
2018-Feb-17 01:51N 57°47' E 010°27'310.0
2018-Feb-17 01:30N 57°48' E 010°33'5 9.3
2018-Feb-17 01:01N 57°48' E 010°41'5 9.7
2018-Feb-17 00:30N 57°46' E 010°50'510.0
2018-Feb-17 00:00N 57°43' E 010°57'510.4
2018-Feb-16 23:30N 57°40' E 011°04'611.5
2018-Feb-16 23:00N 57°36' E 011°12'612.3
2018-Feb-16 22:31N 57°31' E 011°20'611.9
2018-Feb-16 22:00N 57°27' E 011°28'611.5
2018-Feb-16 21:30N 57°22' E 011°31'511.0
2018-Feb-16 21:01N 57°17' E 011°35'510.6
2018-Feb-16 20:31N 57°12' E 011°38'510.7
2018-Feb-16 20:00N 57°06' E 011°41'510.7
2018-Feb-16 19:30N 57°01' E 011°44'610.5
2018-Feb-16 18:54N 56°55' E 011°48'61 9.9
2018-Feb-16 12:48N 55°55' E 011°50'3 9.2
2018-Feb-16 12:30N 55°57' E 011°54'3 5.6
2018-Feb-16 12:00N 55°57' E 011°59'1 0.0
2018-Feb-14 17:12N 55°58' E 012°01'1 2.6
2018-Feb-14 17:00N 55°57' E 012°00'2 3.8
2018-Feb-14 16:30N 55°57' E 011°57'3 5.8
2018-Feb-14 15:58N 55°55' E 011°52'1 3.0
2018-Feb-14 15:30N 55°56' E 011°50'41 5.1
2018-Feb-14 07:29N 55°31' E 010°52'911.8
2018-Feb-14 06:42N 55°24' E 011°01'411.4
2018-Feb-14 06:23N 55°20' E 011°03'410.8
2018-Feb-14 06:00N 55°16' E 011°05'510.8
2018-Feb-14 05:30N 55°11' E 011°05'611.8
2018-Feb-14 05:00N 55°05' E 011°03'612.3
2018-Feb-14 04:30N 54°59' E 011°01'611.1
2018-Feb-14 04:00N 54°55' E 010°55'611.1
2018-Feb-14 03:30N 54°50' E 010°52'611.7
2018-Feb-14 03:00N 54°44' E 010°53'510.7
2018-Feb-14 02:30N 54°40' E 010°60'611.7
2018-Feb-14 02:00N 54°37' E 011°08'611.6
2018-Feb-14 01:30N 54°34' E 011°17'611.4
2018-Feb-14 01:00N 54°30' E 011°24'611.3
2018-Feb-14 00:30N 54°24' E 011°26'612.0
2018-Feb-14 00:01N 54°19' E 011°23'612.0
2018-Feb-13 23:30N 54°13' E 011°19'611.9
2018-Feb-13 23:00N 54°08' E 011°14'  

Dump ship's entire track history